Time;durP1;ratioP1;P1;durP2;ratioP2;P2;SDS_P1;SDS_P2;PMS_P1;PMS_P2;Temp;Humidity;BMP_temperature;BMP_pressure;BME280_temperature;BME280_humidity;BME280_pressure;Samples;Min_cycle;Max_cycle;Signal;HPM_P1;HPM_P2
2022/04/25 00:00:28;;;;;;;21.17;19.57;;;10.60;99.90;;;;;;5148703;27;20763;-83
2022/04/25 00:02:55;;;;;;;21.43;19.93;;;10.40;99.90;;;;;;5143132;27;20633;-82
2022/04/25 00:05:23;;;;;;;22.97;21.20;;;10.50;99.90;;;;;;5142105;27;20631;-83
2022/04/25 00:07:50;;;;;;;22.40;20.70;;;10.40;99.90;;;;;;5143386;27;20621;-83
2022/04/25 00:10:17;;;;;;;21.10;19.60;;;10.80;99.90;;;;;;5144054;27;20645;-84
2022/04/25 00:12:43;;;;;;;21.87;20.17;;;10.90;99.90;;;;;;5144122;27;21178;-84
2022/04/25 00:15:11;;;;;;;20.37;18.63;;;11.00;99.90;;;;;;5147785;27;20618;-83
2022/04/25 00:17:38;;;;;;;21.77;19.97;;;10.90;99.90;;;;;;5145964;27;20637;-84
2022/04/25 00:20:05;;;;;;;21.80;20.07;;;10.80;99.90;;;;;;5140529;27;20677;-84
2022/04/25 00:22:33;;;;;;;20.90;19.30;;;10.80;99.90;;;;;;5143238;27;20624;-84
2022/04/25 00:25:00;;;;;;;20.47;18.77;;;10.60;99.90;;;;;;5142390;27;20605;-84
2022/04/25 00:27:28;;;;;;;21.03;19.40;;;11.10;99.90;;;;;;5142381;27;20691;-84
2022/04/25 00:29:55;;;;;;;20.10;18.60;;;11.00;99.90;;;;;;5143540;27;20689;-83
2022/04/25 00:32:21;;;;;;;19.93;18.40;;;10.70;99.90;;;;;;5141287;27;20632;-84
2022/04/25 00:34:48;;;;;;;22.57;20.40;;;10.40;99.90;;;;;;5139989;27;20617;-83
2022/04/25 00:37:15;;;;;;;22.37;20.77;;;10.40;99.90;;;;;;5141839;27;20629;-83
2022/04/25 00:39:43;;;;;;;23.53;21.63;;;11.00;99.90;;;;;;5140422;27;20714;-83
2022/04/25 00:42:10;;;;;;;23.50;21.70;;;10.90;99.90;;;;;;5140185;27;20658;-83
2022/04/25 00:44:37;;;;;;;24.10;22.30;;;10.70;99.90;;;;;;5139752;27;20743;-83
2022/04/25 00:47:06;;;;;;;24.97;23.10;;;10.40;99.90;;;;;;5135498;27;20732;-83
2022/04/25 00:49:34;;;;;;;25.83;23.80;;;10.90;99.90;;;;;;5141558;27;20658;-83
2022/04/25 00:52:00;;;;;;;25.63;23.77;;;11.00;99.90;;;;;;5139612;27;20609;-83
2022/04/25 00:54:27;;;;;;;24.50;22.73;;;10.40;99.90;;;;;;5136774;27;21403;-83
2022/04/25 00:56:55;;;;;;;24.47;22.57;;;11.00;99.90;;;;;;5135376;27;20621;-83
2022/04/25 00:59:23;;;;;;;25.47;23.53;;;10.80;99.90;;;;;;5136963;27;21121;-83
2022/04/25 01:01:51;;;;;;;24.43;22.60;;;10.90;99.90;;;;;;5143843;27;20665;-83
2022/04/25 01:04:18;;;;;;;22.83;21.13;;;10.80;99.90;;;;;;5141891;27;20912;-83
2022/04/25 01:06:45;;;;;;;25.20;23.30;;;10.50;99.90;;;;;;5141478;27;20625;-83
2022/04/25 01:09:11;;;;;;;25.10;23.20;;;10.40;99.90;;;;;;5145360;27;20640;-83
2022/04/25 01:11:38;;;;;;;23.93;22.07;;;10.70;99.90;;;;;;5139353;27;20634;-83
2022/04/25 01:14:17;;;;;;;23.87;22.17;;;10.80;99.90;;;;;;5138365;27;20633;-83
2022/04/25 01:16:44;;;;;;;23.20;21.57;;;10.60;99.90;;;;;;5147648;27;21316;-83
2022/04/25 01:19:11;;;;;;;26.80;25.00;;;10.70;99.90;;;;;;5145942;27;20636;-83
2022/04/25 01:21:43;;;;;;;26.03;24.17;;;10.80;99.90;;;;;;5148245;27;20629;-83
2022/04/25 01:29:42;;;;;;;25.47;23.60;;;10.80;99.90;;;;;;5144961;27;20624;-83
2022/04/25 01:32:09;;;;;;;24.70;22.90;;;10.80;99.90;;;;;;5142487;27;20713;-83
2022/04/25 01:34:38;;;;;;;25.40;23.60;;;10.60;99.90;;;;;;5146044;27;20633;-83
2022/04/25 01:37:06;;;;;;;25.23;23.43;;;10.10;99.90;;;;;;5145735;27;20636;-83
2022/04/25 01:39:36;;;;;;;26.13;24.17;;;10.70;99.90;;;;;;5146666;27;20726;-83
2022/04/25 01:42:03;;;;;;;26.37;24.37;;;10.20;99.90;;;;;;5144207;27;21032;-83
2022/04/25 01:44:30;;;;;;;27.80;25.80;;;10.50;99.90;;;;;;5142822;27;20629;-83
2022/04/25 01:46:56;;;;;;;26.57;24.47;;;10.30;99.90;;;;;;5145500;27;20633;-84
2022/04/25 01:49:23;;;;;;;27.57;25.57;;;10.60;99.90;;;;;;5146055;27;20614;-84
2022/04/25 01:51:50;;;;;;;26.60;24.70;;;10.50;99.90;;;;;;5141046;27;20704;-84
2022/04/25 01:54:27;;;;;;;26.93;24.93;;;10.60;99.90;;;;;;5145678;27;20620;-83
2022/04/25 01:56:56;;;;;;;25.60;23.57;;;10.60;99.90;;;;;;5147462;27;20628;-83
2022/04/25 01:59:23;;;;;;;28.13;26.07;;;10.60;99.90;;;;;;5144818;27;20736;-84
2022/04/25 02:01:50;;;;;;;29.70;27.50;;;10.50;99.90;;;;;;5150272;27;20632;-83
2022/04/25 02:04:16;;;;;;;27.83;25.53;;;10.30;99.90;;;;;;5147537;27;20625;-83
2022/04/25 02:06:43;;;;;;;26.47;24.47;;;10.30;99.90;;;;;;5144997;27;20621;-84
2022/04/25 02:09:10;;;;;;;28.50;26.30;;;10.50;99.90;;;;;;5147367;27;21277;-84
2022/04/25 02:11:37;;;;;;;29.17;27.00;;;10.60;99.90;;;;;;5147871;27;21149;-84
2022/04/25 02:14:05;;;;;;;28.00;25.93;;;10.30;99.90;;;;;;5146078;27;20620;-84
2022/04/25 02:16:32;;;;;;;29.77;27.40;;;10.40;99.90;;;;;;5144648;27;20647;-84
2022/04/25 02:18:59;;;;;;;29.93;27.63;;;10.20;99.90;;;;;;5141015;27;20629;-84
2022/04/25 02:21:26;;;;;;;28.53;26.47;;;10.50;99.90;;;;;;5143934;27;20682;-83
2022/04/25 02:23:53;;;;;;;28.73;26.60;;;10.40;99.90;;;;;;5143846;27;20656;-83
2022/04/25 02:26:19;;;;;;;30.80;28.50;;;10.40;99.90;;;;;;5145920;27;20632;-83
2022/04/25 02:28:46;;;;;;;29.93;27.73;;;10.30;99.90;;;;;;5147444;27;20632;-84
2022/04/25 02:31:15;;;;;;;30.40;28.20;;;10.20;99.90;;;;;;5148376;27;20671;-84
2022/04/25 02:33:42;;;;;;;30.13;27.83;;;10.50;99.90;;;;;;5138778;27;20629;-84
2022/04/25 02:36:09;;;;;;;29.33;27.07;;;10.70;99.90;;;;;;5149342;27;21351;-83
2022/04/25 02:38:37;;;;;;;28.93;26.83;;;10.10;99.90;;;;;;5140769;27;21129;-83
2022/04/25 02:41:08;;;;;;;29.27;27.03;;;10.10;99.90;;;;;;5142064;27;20670;-84
2022/04/25 02:43:36;;;;;;;29.73;27.53;;;10.60;99.90;;;;;;5146059;27;20736;-83
2022/04/25 02:46:04;;;;;;;30.37;27.80;;;10.50;99.90;;;;;;5142607;27;20614;-83
2022/04/25 02:48:33;;;;;;;30.43;28.13;;;10.20;99.90;;;;;;5142302;27;20620;-84
2022/04/25 02:51:00;;;;;;;29.83;27.60;;;10.30;99.90;;;;;;5147079;27;20986;-83
2022/04/25 02:53:27;;;;;;;28.00;26.00;;;9.90;99.90;;;;;;5144644;27;20612;-84
2022/04/25 02:55:54;;;;;;;30.37;28.07;;;10.70;99.90;;;;;;5143692;27;20636;-84
2022/04/25 02:58:21;;;;;;;29.60;27.27;;;10.60;99.90;;;;;;5144821;27;20630;-83
2022/04/25 03:00:48;;;;;;;28.90;26.40;;;10.40;99.90;;;;;;5146791;27;20676;-83
2022/04/25 03:03:15;;;;;;;29.90;27.50;;;10.40;99.90;;;;;;5146603;27;20629;-83
2022/04/25 03:05:45;;;;;;;28.77;26.63;;;10.60;99.90;;;;;;5145347;27;20984;-83
2022/04/25 03:08:13;;;;;;;29.27;27.07;;;10.50;99.90;;;;;;5144438;27;20614;-83
2022/04/25 03:10:40;;;;;;;27.77;25.67;;;10.70;99.90;;;;;;5142665;27;20654;-83
2022/04/25 03:13:07;;;;;;;28.50;26.30;;;10.40;99.90;;;;;;5146485;27;20630;-83
2022/04/25 03:15:34;;;;;;;29.03;26.83;;;10.40;99.90;;;;;;5144073;27;20777;-83
2022/04/25 03:18:02;;;;;;;29.87;27.57;;;10.30;99.90;;;;;;5142287;27;20637;-83
2022/04/25 03:20:28;;;;;;;28.87;26.67;;;10.30;99.90;;;;;;5146075;27;20680;-83
2022/04/25 03:22:57;;;;;;;27.93;25.87;;;10.70;99.90;;;;;;5144305;27;20625;-84
2022/04/25 03:25:23;;;;;;;28.90;26.60;;;10.10;99.90;;;;;;5144690;27;20632;-84
2022/04/25 03:27:50;;;;;;;28.60;26.50;;;10.00;99.90;;;;;;5144400;27;20609;-83
2022/04/25 03:30:18;;;;;;;28.50;26.37;;;10.30;99.90;;;;;;5147472;27;20649;-83
2022/04/25 03:32:46;;;;;;;28.50;26.50;;;10.20;99.90;;;;;;5141434;27;20619;-83
2022/04/25 03:35:13;;;;;;;28.10;26.10;;;10.10;99.90;;;;;;5141498;27;20629;-83
2022/04/25 03:37:40;;;;;;;28.70;26.50;;;10.20;99.90;;;;;;5143631;27;20636;-84
2022/04/25 03:40:10;;;;;;;28.60;26.50;;;10.00;99.90;;;;;;5144518;27;20685;-83
2022/04/25 03:42:37;;;;;;;27.03;25.03;;;10.40;99.90;;;;;;5143825;27;20625;-83
2022/04/25 03:45:05;;;;;;;28.97;26.47;;;9.60;99.90;;;;;;5143965;27;20894;-83
2022/04/25 03:47:33;;;;;;;28.70;26.60;;;10.10;99.90;;;;;;5144322;27;20637;-83
2022/04/25 03:50:00;;;;;;;28.97;26.97;;;9.90;99.90;;;;;;5140864;27;20660;-83
2022/04/25 03:52:27;;;;;;;27.67;25.67;;;9.60;99.90;;;;;;5140241;27;20977;-82
2022/04/25 03:57:40;;;;;;;28.53;26.53;;;9.90;99.90;;;;;;5145229;27;20601;-82
2022/04/25 04:00:08;;;;;;;29.37;27.23;;;9.60;99.90;;;;;;5142149;27;20996;-82
2022/04/25 04:02:35;;;;;;;30.33;27.90;;;10.40;99.90;;;;;;5149914;27;20637;-82
2022/04/25 04:05:02;;;;;;;31.00;28.60;;;9.80;99.90;;;;;;5141577;27;20632;-83
2022/04/25 04:07:29;;;;;;;29.47;27.33;;;9.60;99.90;;;;;;5144647;27;20626;-82
2022/04/25 04:09:56;;;;;;;31.67;29.40;;;9.90;99.90;;;;;;5142595;27;20886;-82
2022/04/25 04:12:25;;;;;;;30.73;28.43;;;10.10;99.90;;;;;;5143254;27;20648;-82
2022/04/25 04:14:53;;;;;;;28.87;26.77;;;10.10;99.90;;;;;;5143538;27;22054;-82
2022/04/25 04:17:20;;;;;;;28.40;26.40;;;10.10;99.90;;;;;;5145356;27;20632;-82
2022/04/25 04:19:48;;;;;;;29.93;27.63;;;9.90;99.90;;;;;;5143065;27;21167;-82
2022/04/25 04:22:16;;;;;;;32.20;29.70;;;10.20;99.90;;;;;;5145400;27;20665;-82
2022/04/25 04:24:42;;;;;;;30.60;28.30;;;9.90;99.90;;;;;;5142546;27;20629;-82
2022/04/25 04:27:09;;;;;;;28.90;26.60;;;10.20;99.90;;;;;;5141323;27;20622;-82
2022/04/25 04:29:36;;;;;;;31.07;28.67;;;10.30;99.90;;;;;;5144893;27;20641;-82
2022/04/25 04:32:06;;;;;;;30.60;28.30;;;9.90;99.90;;;;;;5146368;27;20613;-82
2022/04/25 04:34:34;;;;;;;29.30;26.70;;;10.30;99.90;;;;;;5143607;27;21242;-82
2022/04/25 04:37:01;;;;;;;30.00;27.77;;;10.00;99.90;;;;;;5137774;27;20621;-82
2022/04/25 04:39:28;;;;;;;32.87;30.27;;;10.30;99.90;;;;;;5136848;27;20645;-82
2022/04/25 04:41:55;;;;;;;30.13;27.83;;;10.10;99.90;;;;;;5141510;27;20666;-82
2022/04/25 04:44:22;;;;;;;30.00;27.37;;;9.90;99.90;;;;;;5140180;27;20629;-82
2022/04/25 04:46:48;;;;;;;30.70;28.40;;;10.20;99.90;;;;;;5139049;27;21193;-82
2022/04/25 04:49:17;;;;;;;30.13;27.80;;;10.10;99.90;;;;;;5140504;27;20625;-82
2022/04/25 04:51:43;;;;;;;28.83;26.73;;;9.80;99.90;;;;;;5140423;27;20633;-82
2022/04/25 04:54:10;;;;;;;28.00;25.80;;;10.20;99.90;;;;;;5143294;27;21000;-82
2022/04/25 04:56:37;;;;;;;32.47;29.30;;;9.80;99.90;;;;;;5137009;27;20625;-82
2022/04/25 04:59:05;;;;;;;30.53;28.23;;;10.20;99.90;;;;;;5140286;27;20977;-82
2022/04/25 05:01:32;;;;;;;31.63;29.10;;;9.90;99.90;;;;;;5131316;27;103975;-82
2022/04/25 05:03:59;;;;;;;29.60;27.10;;;10.40;99.90;;;;;;5127446;27;20636;-82
2022/04/25 05:06:27;;;;;;;29.47;27.27;;;10.30;99.90;;;;;;5137272;27;20972;-82
2022/04/25 05:08:54;;;;;;;31.20;28.80;;;10.50;99.90;;;;;;5143235;27;20614;-82
2022/04/25 05:11:21;;;;;;;29.47;27.27;;;10.00;99.90;;;;;;5144277;27;21004;-82
2022/04/25 05:13:48;;;;;;;28.97;26.67;;;10.00;99.90;;;;;;5142765;27;20617;-81
2022/04/25 05:16:15;;;;;;;29.93;27.37;;;10.20;99.90;;;;;;5143219;27;20725;-82
2022/04/25 05:18:44;;;;;;;27.37;25.30;;;10.40;99.90;;;;;;5141295;27;20622;-82
2022/04/25 05:21:13;;;;;;;27.80;25.70;;;10.60;99.90;;;;;;5142886;27;21027;-82
2022/04/25 05:23:42;;;;;;;27.53;25.33;;;10.60;99.90;;;;;;5146798;27;20668;-82
2022/04/25 05:26:09;;;;;;;27.87;25.77;;;10.70;99.90;;;;;;5145176;27;20609;-82
2022/04/25 05:28:36;;;;;;;28.70;26.23;;;10.80;99.90;;;;;;5143564;27;20605;-82
2022/04/25 05:31:03;;;;;;;26.80;24.83;;;10.60;99.90;;;;;;5142864;27;20761;-82
2022/04/25 05:33:30;;;;;;;28.70;26.60;;;10.70;99.90;;;;;;5148858;27;20609;-82
2022/04/25 05:35:57;;;;;;;28.30;26.00;;;10.60;99.90;;;;;;5143025;27;20629;-82
2022/04/25 05:38:23;;;;;;;29.47;27.27;;;10.30;99.90;;;;;;5138870;27;20970;-82
2022/04/25 05:40:52;;;;;;;28.07;25.90;;;10.40;99.90;;;;;;5136091;27;20673;-82
2022/04/25 05:43:19;;;;;;;27.97;25.77;;;10.80;99.90;;;;;;5140085;27;20623;-81
2022/04/25 05:45:47;;;;;;;28.57;26.43;;;10.40;99.90;;;;;;5140835;27;20651;-82
2022/04/25 05:53:43;;;;;;;26.90;24.90;;;10.90;99.90;;;;;;5130138;27;20577;-84
2022/04/25 05:56:12;;;;;;;27.53;25.33;;;11.10;99.90;;;;;;5139592;27;21215;-83
2022/04/25 05:58:38;;;;;;;29.67;27.23;;;10.90;99.90;;;;;;5144017;27;20637;-82
2022/04/25 06:01:05;;;;;;;28.13;26.03;;;11.20;99.90;;;;;;5141234;27;20689;-83
2022/04/25 06:03:32;;;;;;;26.10;24.00;;;11.40;99.90;;;;;;5143801;27;20609;-82
2022/04/25 06:05:58;;;;;;;25.60;23.63;;;11.10;99.90;;;;;;5145061;27;20664;-83
2022/04/25 06:08:25;;;;;;;24.80;22.90;;;11.30;99.90;;;;;;5145773;27;20617;-82
2022/04/25 06:10:52;;;;;;;27.00;24.90;;;11.30;99.90;;;;;;5146940;27;20609;-82
2022/04/25 06:13:20;;;;;;;26.07;24.03;;;11.50;99.90;;;;;;5147344;27;20624;-82
2022/04/25 06:15:46;;;;;;;24.97;23.07;;;11.40;99.90;;;;;;5142029;27;21250;-82
2022/04/25 06:18:13;;;;;;;23.43;21.63;;;11.60;99.90;;;;;;5145148;27;20636;-82
2022/04/25 06:20:40;;;;;;;23.80;22.00;;;11.30;99.90;;;;;;5145225;27;20620;-83
2022/04/25 06:23:07;;;;;;;23.97;22.17;;;11.30;99.90;;;;;;5143414;27;20629;-83
2022/04/25 06:25:36;;;;;;;22.77;20.97;;;11.40;99.90;;;;;;5136888;27;20649;-83
2022/04/25 06:28:04;;;;;;;21.67;20.07;;;11.90;99.90;;;;;;5144156;27;20617;-84
2022/04/25 06:30:32;;;;;;;24.20;22.20;;;12.00;99.90;;;;;;5148204;27;20623;-83
2022/04/25 06:33:00;;;;;;;22.00;20.27;;;12.10;99.90;;;;;;5142561;27;20618;-83
2022/04/25 06:35:27;;;;;;;22.10;20.40;;;12.10;99.90;;;;;;5144225;27;20652;-83
2022/04/25 06:37:54;;;;;;;19.40;17.83;;;12.40;99.90;;;;;;5143591;27;20622;-83
2022/04/25 06:40:22;;;;;;;19.90;18.30;;;12.40;99.90;;;;;;5139905;27;20610;-83
2022/04/25 06:42:51;;;;;;;19.80;18.10;;;12.40;99.90;;;;;;5144028;27;20648;-83
2022/04/25 06:45:17;;;;;;;21.33;19.53;;;12.50;99.90;;;;;;5145434;27;20653;-83
2022/04/25 06:47:45;;;;;;;19.27;17.87;;;12.60;99.90;;;;;;5139971;27;21039;-83
2022/04/25 06:50:12;;;;;;;23.03;21.23;;;12.60;99.90;;;;;;5142605;27;20967;-82
2022/04/25 06:52:40;;;;;;;20.80;19.10;;;12.70;99.90;;;;;;5140983;27;20722;-82
2022/04/25 06:55:07;;;;;;;21.20;19.50;;;12.80;99.90;;;;;;5142220;27;21196;-83
2022/04/25 06:57:34;;;;;;;20.33;18.73;;;12.80;99.90;;;;;;5136959;27;20621;-83
2022/04/25 07:00:01;;;;;;;22.43;20.63;;;12.80;99.90;;;;;;5140633;27;21139;-82
2022/04/25 07:02:28;;;;;;;20.47;18.97;;;12.90;99.90;;;;;;5144460;27;20665;-83
2022/04/25 07:04:56;;;;;;;19.53;18.13;;;12.50;99.90;;;;;;5143228;27;21132;-82
2022/04/25 07:07:25;;;;;;;20.33;18.73;;;13.00;99.90;;;;;;5142651;27;20740;-84
2022/04/25 07:09:52;;;;;;;19.37;17.83;;;13.20;99.90;;;;;;5140104;27;20933;-82
2022/04/25 07:12:18;;;;;;;20.30;18.70;;;13.30;99.90;;;;;;5137669;27;20650;-82
2022/04/25 07:14:45;;;;;;;21.40;19.70;;;13.50;99.90;;;;;;5139763;27;20632;-82
2022/04/25 07:17:12;;;;;;;18.97;17.60;;;13.60;99.90;;;;;;5147036;27;21168;-84
2022/04/25 07:19:39;;;;;;;17.70;16.23;;;13.80;99.90;;;;;;5141715;27;20601;-82
2022/04/25 07:30:22;;;;;;;12.83;11.73;;;13.70;99.90;;;;;;5140745;27;20636;-83
2022/04/25 07:32:49;;;;;;;14.03;12.73;;;13.70;99.90;;;;;;5141618;27;21182;-82
2022/04/25 07:35:16;;;;;;;13.90;12.60;;;13.70;99.90;;;;;;5145693;27;20625;-82
2022/04/25 07:37:44;;;;;;;14.30;12.90;;;13.60;99.90;;;;;;5140077;27;20609;-81
2022/04/25 07:40:11;;;;;;;15.90;14.60;;;13.80;99.90;;;;;;5136568;27;20626;-82
2022/04/25 07:42:39;;;;;;;14.73;13.50;;;13.70;99.90;;;;;;5145082;27;20665;-83
2022/04/25 07:45:07;;;;;;;14.97;13.97;;;13.60;99.90;;;;;;5141750;27;20685;-81
2022/04/25 07:47:34;;;;;;;11.83;10.83;;;13.50;99.90;;;;;;5139645;27;20637;-81
2022/04/25 07:50:01;;;;;;;13.60;12.33;;;13.50;99.90;;;;;;5135742;27;20622;-81
2022/04/25 07:52:28;;;;;;;15.83;14.37;;;13.50;99.90;;;;;;5142539;27;20632;-83
2022/04/25 07:54:56;;;;;;;12.30;11.10;;;13.50;99.90;;;;;;5139299;27;20682;-81
2022/04/25 07:57:23;;;;;;;14.03;12.90;;;13.50;99.90;;;;;;5139463;27;21180;-81
2022/04/25 07:59:50;;;;;;;16.30;14.90;;;13.50;99.90;;;;;;5138723;27;20632;-81
2022/04/25 08:02:18;;;;;;;14.70;13.63;;;13.60;99.90;;;;;;5142249;27;20673;-81
2022/04/25 08:04:46;;;;;;;15.23;14.03;;;13.70;99.90;;;;;;5139768;27;20613;-81
2022/04/25 08:07:13;;;;;;;14.50;13.40;;;13.90;99.90;;;;;;5139461;27;20613;-81
2022/04/25 08:09:40;;;;;;;15.70;14.37;;;14.00;99.90;;;;;;5137182;27;20647;-81
2022/04/25 08:20:22;;;;;;;12.57;11.47;;;14.30;99.90;;;;;;5139214;27;20796;-82
2022/04/25 08:22:50;;;;;;;14.43;13.23;;;14.40;99.90;;;;;;5140977;27;20653;-83
2022/04/25 08:25:17;;;;;;;16.40;15.20;;;14.40;99.90;;;;;;5140671;27;20705;-83
2022/04/25 08:27:45;;;;;;;14.60;13.20;;;14.20;99.90;;;;;;5141620;27;20629;-83
2022/04/25 08:30:12;;;;;;;13.50;12.33;;;14.30;99.90;;;;;;5142153;27;20618;-83
2022/04/25 08:32:39;;;;;;;15.47;13.97;;;14.30;99.90;;;;;;5135997;27;20967;-83
2022/04/25 08:35:09;;;;;;;19.90;13.67;;;14.40;99.90;;;;;;5142086;27;20628;-83
2022/04/25 08:37:36;;;;;;;19.40;17.90;;;14.30;99.90;;;;;;5143294;27;20629;-83
2022/04/25 08:40:03;;;;;;;18.20;16.90;;;14.30;99.90;;;;;;5134594;27;20629;-83
2022/04/25 08:42:31;;;;;;;18.97;17.30;;;14.40;99.90;;;;;;5141425;27;21101;-81
2022/04/25 08:45:00;;;;;;;16.43;15.23;;;14.60;99.90;;;;;;5134437;27;20622;-84
2022/04/25 08:47:33;;;;;;;17.23;15.87;;;14.60;99.90;;;;;;5141439;27;20602;-82
2022/04/25 08:50:00;;;;;;;18.00;16.60;;;14.70;99.90;;;;;;5138735;27;21245;-84
2022/04/25 08:52:30;;;;;;;16.80;15.50;;;14.90;99.90;;;;;;5142499;27;20617;-83
2022/04/25 08:54:58;;;;;;;16.57;15.37;;;14.80;99.90;;;;;;5141899;27;20636;-83
2022/04/25 08:57:26;;;;;;;16.10;14.90;;;14.70;99.90;;;;;;5138737;27;20618;-82
2022/04/25 08:59:56;;;;;;;15.10;14.00;;;14.80;99.90;;;;;;5132607;27;20633;-82
2022/04/25 09:02:24;;;;;;;16.07;14.87;;;14.70;99.90;;;;;;5137374;27;20673;-82
2022/04/25 09:04:51;;;;;;;15.63;14.33;;;14.80;99.90;;;;;;5134357;27;20621;-81
2022/04/25 09:07:18;;;;;;;15.57;14.37;;;14.80;99.90;;;;;;5142522;27;20632;-81
2022/04/25 09:09:45;;;;;;;15.20;14.00;;;14.80;99.90;;;;;;5139263;27;21151;-82
2022/04/25 09:12:14;;;;;;;15.43;14.20;;;15.00;99.90;;;;;;5138128;27;20654;-82
2022/04/25 09:14:43;;;;;;;15.40;14.27;;;15.20;99.90;;;;;;5134490;27;21256;-82
2022/04/25 09:17:10;;;;;;;15.33;14.23;;;15.20;99.90;;;;;;5138887;27;20605;-82
2022/04/25 09:19:40;;;;;;;13.63;12.10;;;15.20;99.90;;;;;;5132670;27;20633;-82
2022/04/25 09:22:07;;;;;;;15.13;14.03;;;15.30;99.90;;;;;;5135774;27;20678;-82
2022/04/25 09:24:36;;;;;;;13.50;12.40;;;15.40;99.90;;;;;;5134181;27;20949;-82
2022/04/25 09:27:17;;;;;;;16.37;14.97;;;15.40;99.90;;;;;;5130815;27;20614;-82
2022/04/25 09:29:43;;;;;;;14.27;13.17;;;15.30;99.90;;;;;;5136318;27;20609;-82
2022/04/25 09:32:13;;;;;;;14.27;13.17;;;15.20;99.90;;;;;;5137529;27;20637;-82
2022/04/25 09:37:44;;;;;;;14.00;12.77;;;15.40;99.90;;;;;;5143758;27;20623;-82
2022/04/25 09:40:15;;;;;;;13.50;12.17;;;15.50;99.90;;;;;;5133810;27;20616;-83
2022/04/25 09:42:42;;;;;;;13.50;12.50;;;15.40;99.90;;;;;;5138043;27;20669;-83
2022/04/25 09:45:09;;;;;;;14.93;13.57;;;15.50;99.90;;;;;;5142762;27;20620;-84
2022/04/25 09:47:37;;;;;;;12.93;11.73;;;15.60;99.90;;;;;;5142945;27;20609;-82
2022/04/25 09:50:08;;;;;;;13.10;12.00;;;15.60;99.90;;;;;;5143081;27;20622;-84
2022/04/25 09:52:36;;;;;;;14.70;13.60;;;15.70;99.90;;;;;;5142538;27;20626;-84
2022/04/25 09:55:15;;;;;;;13.97;12.97;;;15.80;99.90;;;;;;5142600;27;20625;-83
2022/04/25 09:57:44;;;;;;;13.60;12.50;;;15.80;99.90;;;;;;5139580;27;20963;-83
2022/04/25 10:00:13;;;;;;;14.20;13.10;;;15.80;99.90;;;;;;5143915;27;20672;-83
2022/04/25 10:02:41;;;;;;;13.67;12.40;;;15.90;99.90;;;;;;5143725;27;20729;-83
2022/04/25 10:05:15;;;;;;;12.90;11.90;;;15.90;99.90;;;;;;5142814;27;20622;-84
2022/04/25 10:07:43;;;;;;;15.30;13.90;;;15.90;99.90;;;;;;5140944;27;20653;-82
2022/04/25 10:10:10;;;;;;;13.40;12.20;;;16.20;99.90;;;;;;5147807;27;20617;-84
2022/04/25 10:12:38;;;;;;;12.10;11.10;;;16.50;99.90;;;;;;5139006;27;21003;-85
2022/04/25 10:15:06;;;;;;;14.67;13.30;;;16.50;99.90;;;;;;5133449;27;20606;-82
2022/04/25 10:17:34;;;;;;;12.00;11.20;;;16.80;99.90;;;;;;5142848;27;20606;-82
2022/04/25 10:20:02;;;;;;;11.40;10.60;;;17.20;99.90;;;;;;5137670;27;20648;-82
2022/04/25 10:22:30;;;;;;;12.10;11.20;;;17.60;99.90;;;;;;5144905;27;20713;-83
2022/04/25 10:24:58;;;;;;;14.83;13.53;;;18.00;99.90;;;;;;5143884;27;20630;-83
2022/04/25 10:27:29;;;;;;;13.17;11.90;;;18.10;99.90;;;;;;5144272;27;20640;-82
2022/04/25 10:30:01;;;;;;;12.20;11.17;;;18.20;99.90;;;;;;5139177;27;20957;-83
2022/04/25 10:32:28;;;;;;;13.13;12.23;;;18.20;99.70;;;;;;5136438;27;20627;-83
2022/04/25 10:34:59;;;;;;;13.30;12.20;;;18.30;99.90;;;;;;5143109;27;20629;-82
2022/04/25 10:37:32;;;;;;;12.23;11.23;;;18.40;98.70;;;;;;5148138;27;20629;-82
2022/04/25 10:40:00;;;;;;;11.90;11.10;;;18.60;99.90;;;;;;5132421;27;20632;-82
2022/04/25 10:45:11;;;;;;;11.90;10.90;;;18.90;98.00;;;;;;5140338;27;20975;-82
2022/04/25 10:47:55;;;;;;;10.80;10.00;;;19.30;99.00;;;;;;5140404;27;20617;-83
2022/04/25 10:50:22;;;;;;;12.50;11.60;;;19.50;94.10;;;;;;5144069;27;20726;-83
2022/04/25 10:52:55;;;;;;;10.37;9.57;;;19.60;92.50;;;;;;5142261;27;21178;-83
2022/04/25 10:55:26;;;;;;;11.93;10.97;;;19.70;91.30;;;;;;5144857;27;20617;-83
2022/04/25 10:58:19;;;;;;;11.83;10.93;;;19.60;87.80;;;;;;5139209;27;21191;-83
2022/04/25 11:00:48;;;;;;;11.33;10.43;;;19.70;86.70;;;;;;5141062;27;20671;-82
2022/04/25 11:03:17;;;;;;;11.10;10.30;;;19.70;86.50;;;;;;5140878;27;20669;-82
2022/04/25 11:05:45;;;;;;;11.53;10.60;;;19.70;84.40;;;;;;5142489;27;20645;-82
2022/04/25 11:08:28;;;;;;;11.53;10.63;;;19.50;85.00;;;;;;5138893;27;21008;-82
2022/04/25 11:11:21;;;;;;;11.00;9.93;;;19.40;84.30;;;;;;5137809;27;20764;-82
2022/04/25 11:14:11;;;;;;;11.60;10.60;;;19.20;84.60;;;;;;5137846;27;20882;-82
2022/04/25 11:16:39;;;;;;;11.20;10.30;;;19.10;87.60;;;;;;5141917;27;20625;-82
2022/04/25 11:19:17;;;;;;;11.47;10.63;;;19.20;90.80;;;;;;5143670;27;20621;-82
2022/04/25 11:21:47;;;;;;;11.10;10.30;;;19.50;91.60;;;;;;5133083;27;20672;-83
2022/04/25 11:24:35;;;;;;;11.73;10.80;;;19.60;90.90;;;;;;5138661;27;20650;-83
2022/04/25 11:27:03;;;;;;;11.47;10.77;;;19.50;91.30;;;;;;5138917;27;20617;-82
2022/04/25 11:29:32;;;;;;;10.83;10.10;;;19.50;91.60;;;;;;5139251;27;20613;-82
2022/04/25 11:32:30;;;;;;;10.90;10.10;;;19.40;90.90;;;;;;5138815;27;20995;-83
2022/04/25 11:35:00;;;;;;;10.40;9.50;;;19.60;92.50;;;;;;5142914;27;20699;-83
2022/04/25 11:37:31;;;;;;;11.40;10.60;;;19.50;94.00;;;;;;5144047;27;20714;-83
2022/04/25 11:40:01;;;;;;;10.87;10.07;;;19.40;91.20;;;;;;5135357;27;20632;-83
2022/04/25 11:42:29;;;;;;;10.83;10.10;;;19.10;93.30;;;;;;5144174;27;20617;-83
2022/04/25 11:44:57;;;;;;;10.97;10.17;;;19.00;94.10;;;;;;5137752;27;20632;-83
2022/04/25 11:47:24;;;;;;;10.60;9.80;;;18.80;95.80;;;;;;5135607;27;20624;-83
2022/04/25 11:49:57;;;;;;;12.10;11.20;;;18.60;95.10;;;;;;5136660;27;20622;-82
2022/04/25 11:52:24;;;;;;;11.53;10.63;;;18.50;92.70;;;;;;5142375;27;20628;-83
2022/04/25 11:54:51;;;;;;;12.57;11.33;;;18.40;95.10;;;;;;5136459;27;21074;-83
2022/04/25 11:57:19;;;;;;;12.87;11.97;;;18.20;95.30;;;;;;5140879;27;20618;-83
2022/04/25 11:59:46;;;;;;;12.53;11.63;;;17.90;96.50;;;;;;5136913;27;21230;-83
2022/04/25 12:02:12;;;;;;;12.30;11.20;;;17.80;99.50;;;;;;5139784;27;20659;-82
2022/04/25 12:04:41;;;;;;;12.67;11.67;;;17.70;99.90;;;;;;5131850;27;21009;-82
2022/04/25 12:07:09;;;;;;;14.60;12.53;;;17.60;99.90;;;;;;5142240;27;20634;-83
2022/04/25 12:15:37;;;;;;;13.27;12.23;;;17.00;99.90;;;;;;5138330;27;21160;-82
2022/04/25 12:18:15;;;;;;;15.40;14.20;;;16.80;99.90;;;;;;5136743;27;21018;-83
2022/04/25 12:20:45;;;;;;;16.07;13.97;;;16.60;99.90;;;;;;5133176;27;20642;-83
2022/04/25 12:23:22;;;;;;;15.50;14.40;;;16.70;99.90;;;;;;5139357;27;21317;-85
2022/04/25 12:25:49;;;;;;;15.30;14.10;;;16.40;99.90;;;;;;5135770;27;20666;-82
2022/04/25 12:28:20;;;;;;;16.43;15.00;;;16.20;99.90;;;;;;5136396;27;21231;-84
2022/04/25 12:30:53;;;;;;;16.30;15.10;;;16.00;99.90;;;;;;5143014;27;20860;-82
2022/04/25 12:33:22;;;;;;;16.50;15.10;;;15.80;99.90;;;;;;5138038;27;20610;-81
2022/04/25 12:35:51;;;;;;;17.07;15.90;;;15.60;99.90;;;;;;5137287;27;20613;-81
2022/04/25 12:38:39;;;;;;;17.77;16.37;;;15.40;99.90;;;;;;5124847;27;20626;-81
2022/04/25 12:41:07;;;;;;;18.80;17.40;;;15.20;99.90;;;;;;5140612;27;20649;-83
2022/04/25 12:43:43;;;;;;;18.03;16.73;;;14.80;99.90;;;;;;5142109;27;20975;-82
2022/04/25 12:46:11;;;;;;;20.07;18.57;;;14.60;99.90;;;;;;5138862;27;20713;-81
2022/04/25 12:48:58;;;;;;;19.57;18.07;;;14.40;99.90;;;;;;5139008;27;21439;-82
2022/04/25 12:51:30;;;;;;;18.53;17.03;;;14.30;99.90;;;;;;5135634;27;20749;-82
2022/04/25 12:53:57;;;;;;;19.93;18.50;;;14.20;99.90;;;;;;5132415;27;20993;-82
2022/04/25 12:56:25;;;;;;;20.33;18.53;;;14.20;99.90;;;;;;5141642;27;20622;-82
2022/04/25 12:58:53;;;;;;;19.43;18.03;;;14.10;99.90;;;;;;5129940;27;20627;-82
2022/04/25 13:01:31;;;;;;;20.30;18.70;;;14.20;99.90;;;;;;5140248;27;20693;-82
2022/04/25 13:04:16;;;;;;;20.30;18.73;;;14.20;99.90;;;;;;5142940;27;20718;-82
2022/04/25 13:06:44;;;;;;;18.27;16.97;;;14.10;99.90;;;;;;5135759;27;20621;-82
2022/04/25 13:09:12;;;;;;;18.30;16.90;;;14.00;99.90;;;;;;5142911;27;21188;-82
2022/04/25 13:11:39;;;;;;;17.20;15.90;;;14.00;99.90;;;;;;5146467;27;20748;-82
2022/04/25 13:14:08;;;;;;;18.87;17.17;;;14.10;99.90;;;;;;5145472;27;20593;-82
2022/04/25 13:16:34;;;;;;;18.37;16.97;;;14.00;99.90;;;;;;5146400;27;21140;-82